Terminal Aerodrome Forecast
Issued by NWS

Home | Current Version | Previous Version | Text Only | Print | Product List | Glossary On
Versions: 1 2 3 4 5 6 7 8 9 10 11 12 13 14 15 16
000
FTUS44 KLZK 281700
TAFBPK
TAF
KBPK 281720Z 2818/2918 34005KT P6SM SCT020 BKN150
     FM282300 VRB03KT P6SM FEW020 SCT200
     FM291500 09003KT P6SM SCT010=

USA.gov is the U.S. government's official web portal to all federal, state and local government web resources and services.